sensor_id;sensor_type;location;lat;lon;timestamp;pressure;altitude;pressure_sealevel;temperature;humidity
50349;BME280;36250;48.740;22.174;2023-11-21T00:00:50;99933.53;;;8.29;78.59
50349;BME280;36250;48.740;22.174;2023-11-21T00:03:15;99930.34;;;8.32;78.71
50349;BME280;36250;48.740;22.174;2023-11-21T00:05:41;99937.19;;;8.35;78.19
50349;BME280;36250;48.740;22.174;2023-11-21T00:08:07;99943.81;;;8.27;78.34
50349;BME280;36250;48.740;22.174;2023-11-21T00:10:34;99944.50;;;8.23;78.93
50349;BME280;36250;48.740;22.174;2023-11-21T00:12:59;99945.34;;;8.23;78.89
50349;BME280;36250;48.740;22.174;2023-11-21T00:15:27;99938.16;;;8.29;78.62
50349;BME280;36250;48.740;22.174;2023-11-21T00:17:53;99940.06;;;8.28;78.75
50349;BME280;36250;48.740;22.174;2023-11-21T00:20:18;99937.09;;;8.30;78.51
50349;BME280;36250;48.740;22.174;2023-11-21T00:22:43;99945.81;;;8.32;78.30
50349;BME280;36250;48.740;22.174;2023-11-21T00:25:09;99946.63;;;8.32;78.14
50349;BME280;36250;48.740;22.174;2023-11-21T00:27:35;99949.81;;;8.29;77.98
50349;BME280;36250;48.740;22.174;2023-11-21T00:30:01;99950.66;;;8.18;78.78
50349;BME280;36250;48.740;22.174;2023-11-21T00:32:26;99950.19;;;8.21;78.55
50349;BME280;36250;48.740;22.174;2023-11-21T00:34:52;99955.09;;;8.24;78.85
50349;BME280;36250;48.740;22.174;2023-11-21T00:37:17;99953.03;;;8.26;78.61
50349;BME280;36250;48.740;22.174;2023-11-21T00:39:42;99956.53;;;8.27;78.82
50349;BME280;36250;48.740;22.174;2023-11-21T00:42:08;99947.09;;;8.29;78.79
50349;BME280;36250;48.740;22.174;2023-11-21T00:44:33;99950.41;;;8.31;78.45
50349;BME280;36250;48.740;22.174;2023-11-21T00:46:59;99954.75;;;8.32;78.64
50349;BME280;36250;48.740;22.174;2023-11-21T00:49:25;99956.44;;;8.33;78.33
50349;BME280;36250;48.740;22.174;2023-11-21T00:51:50;99955.50;;;8.28;78.39
50349;BME280;36250;48.740;22.174;2023-11-21T00:54:15;99952.41;;;8.24;78.47
50349;BME280;36250;48.740;22.174;2023-11-21T00:56:42;99953.84;;;8.15;78.95
50349;BME280;36250;48.740;22.174;2023-11-21T00:59:08;99952.22;;;8.14;78.66
50349;BME280;36250;48.740;22.174;2023-11-21T01:01:33;99948.53;;;8.20;78.80
50349;BME280;36250;48.740;22.174;2023-11-21T01:03:59;99951.59;;;8.24;78.57
50349;BME280;36250;48.740;22.174;2023-11-21T01:06:24;99944.91;;;8.26;78.49
50349;BME280;36250;48.740;22.174;2023-11-21T01:08:49;99950.91;;;8.28;78.60
50349;BME280;36250;48.740;22.174;2023-11-21T01:11:15;99941.13;;;8.16;77.93
50349;BME280;36250;48.740;22.174;2023-11-21T01:13:40;99942.34;;;7.97;78.43
50349;BME280;36250;48.740;22.174;2023-11-21T01:16:06;99939.16;;;8.00;78.68
50349;BME280;36250;48.740;22.174;2023-11-21T01:18:32;99935.63;;;7.99;78.49
50349;BME280;36250;48.740;22.174;2023-11-21T01:20:58;99934.34;;;8.02;78.71
50349;BME280;36250;48.740;22.174;2023-11-21T01:23:26;99936.94;;;7.97;78.74
50349;BME280;36250;48.740;22.174;2023-11-21T01:25:52;99936.78;;;8.03;78.79
50349;BME280;36250;48.740;22.174;2023-11-21T01:28:17;99938.88;;;8.13;78.65
50349;BME280;36250;48.740;22.174;2023-11-21T01:30:43;99944.88;;;8.15;78.18
50349;BME280;36250;48.740;22.174;2023-11-21T01:33:09;99941.84;;;8.11;78.56
50349;BME280;36250;48.740;22.174;2023-11-21T01:35:35;99940.53;;;8.14;78.65
50349;BME280;36250;48.740;22.174;2023-11-21T01:38:01;99936.84;;;8.20;78.61
50349;BME280;36250;48.740;22.174;2023-11-21T01:40:26;99944.75;;;8.21;78.58
50349;BME280;36250;48.740;22.174;2023-11-21T01:42:53;99942.63;;;8.23;78.47
50349;BME280;36250;48.740;22.174;2023-11-21T01:45:18;99941.69;;;8.29;77.93
50349;BME280;36250;48.740;22.174;2023-11-21T01:47:44;99947.47;;;8.33;78.52
50349;BME280;36250;48.740;22.174;2023-11-21T01:50:13;99944.50;;;8.34;78.46
50349;BME280;36250;48.740;22.174;2023-11-21T01:52:41;99939.91;;;8.35;78.21
50349;BME280;36250;48.740;22.174;2023-11-21T01:55:09;99949.25;;;8.27;78.08
50349;BME280;36250;48.740;22.174;2023-11-21T01:57:35;99944.50;;;8.34;78.01
50349;BME280;36250;48.740;22.174;2023-11-21T02:00:03;99934.47;;;8.35;78.19
50349;BME280;36250;48.740;22.174;2023-11-21T02:02:49;99943.81;;;8.27;78.06
50349;BME280;36250;48.740;22.174;2023-11-21T02:05:16;99938.75;;;8.31;78.57
50349;BME280;36250;48.740;22.174;2023-11-21T02:07:43;99934.00;;;8.38;78.02
50349;BME280;36250;48.740;22.174;2023-11-21T02:10:10;99929.72;;;8.42;77.70
50349;BME280;36250;48.740;22.174;2023-11-21T02:12:42;99936.56;;;8.44;77.91
50349;BME280;36250;48.740;22.174;2023-11-21T02:15:12;99932.22;;;8.43;77.93
50349;BME280;36250;48.740;22.174;2023-11-21T02:17:43;99933.38;;;8.47;78.09
50349;BME280;36250;48.740;22.174;2023-11-21T02:20:13;99924.41;;;8.47;77.83
50349;BME280;36250;48.740;22.174;2023-11-21T02:22:41;99934.50;;;8.51;77.90
50349;BME280;36250;48.740;22.174;2023-11-21T02:25:07;99934.50;;;8.51;77.93
50349;BME280;36250;48.740;22.174;2023-11-21T02:27:33;99933.19;;;8.54;77.86
50349;BME280;36250;48.740;22.174;2023-11-21T02:29:58;99936.66;;;8.49;77.33
50349;BME280;36250;48.740;22.174;2023-11-21T02:32:25;99934.16;;;8.31;77.99
50349;BME280;36250;48.740;22.174;2023-11-21T02:34:51;99930.09;;;8.34;78.30
50349;BME280;36250;48.740;22.174;2023-11-21T02:37:16;99929.97;;;8.40;78.17
50349;BME280;36250;48.740;22.174;2023-11-21T02:39:42;99936.56;;;8.44;78.21
50349;BME280;36250;48.740;22.174;2023-11-21T02:42:07;99939.03;;;8.46;78.27
50349;BME280;36250;48.740;22.174;2023-11-21T02:44:33;99938.16;;;8.29;78.56
50349;BME280;36250;48.740;22.174;2023-11-21T02:46:58;99940.97;;;8.22;78.85
50349;BME280;36250;48.740;22.174;2023-11-21T02:49:25;99941.69;;;8.29;78.79
50349;BME280;36250;48.740;22.174;2023-11-21T02:51:53;99938.59;;;8.37;78.66
50349;BME280;36250;48.740;22.174;2023-11-21T02:54:20;99942.13;;;8.38;78.40
50349;BME280;36250;48.740;22.174;2023-11-21T02:56:47;99943.34;;;8.30;78.74
50349;BME280;36250;48.740;22.174;2023-11-21T02:59:12;99939.31;;;8.33;78.74
50349;BME280;36250;48.740;22.174;2023-11-21T03:01:37;99938.03;;;8.24;78.68
50349;BME280;36250;48.740;22.174;2023-11-21T03:04:03;99940.66;;;8.19;78.91
50349;BME280;36250;48.740;22.174;2023-11-21T03:06:28;99942.63;;;8.23;78.96
50349;BME280;36250;48.740;22.174;2023-11-21T03:08:54;99938.03;;;8.24;78.34
50349;BME280;36250;48.740;22.174;2023-11-21T03:11:19;99940.28;;;8.27;78.73
50349;BME280;36250;48.740;22.174;2023-11-21T03:13:45;99946.06;;;8.30;78.60
50349;BME280;36250;48.740;22.174;2023-11-21T03:16:10;99939.56;;;8.31;78.95
50349;BME280;36250;48.740;22.174;2023-11-21T03:18:37;99932.13;;;8.38;78.43
50349;BME280;36250;48.740;22.174;2023-11-21T03:21:04;99939.25;;;8.44;78.89
50349;BME280;36250;48.740;22.174;2023-11-21T03:23:30;99927.94;;;8.47;78.68
50349;BME280;36250;48.740;22.174;2023-11-21T03:25:55;99936.66;;;8.49;78.68
50349;BME280;36250;48.740;22.174;2023-11-21T03:28:20;99935.09;;;8.53;77.98
50349;BME280;36250;48.740;22.174;2023-11-21T03:30:46;99929.44;;;8.55;78.29
50349;BME280;36250;48.740;22.174;2023-11-21T03:33:11;99918.59;;;8.55;78.15
50349;BME280;36250;48.740;22.174;2023-11-21T03:35:37;99927.28;;;8.57;78.32
50349;BME280;36250;48.740;22.174;2023-11-21T03:38:02;99917.84;;;8.59;77.95
50349;BME280;36250;48.740;22.174;2023-11-21T03:40:28;99922.22;;;8.61;78.00
50349;BME280;36250;48.740;22.174;2023-11-21T03:42:53;99912.44;;;8.59;77.93
50349;BME280;36250;48.740;22.174;2023-11-21T03:45:18;99921.38;;;8.60;78.03
50349;BME280;36250;48.740;22.174;2023-11-21T03:47:44;99929.09;;;8.51;77.90
50349;BME280;36250;48.740;22.174;2023-11-21T03:50:09;99928.56;;;8.38;77.71
50349;BME280;36250;48.740;22.174;2023-11-21T03:52:35;99931.03;;;8.39;78.21
50349;BME280;36250;48.740;22.174;2023-11-21T03:55:01;99926.19;;;8.41;78.52
50349;BME280;36250;48.740;22.174;2023-11-21T03:57:26;99930.72;;;8.36;77.91
50349;BME280;36250;48.740;22.174;2023-11-21T03:59:53;99931.78;;;8.23;78.58
50349;BME280;36250;48.740;22.174;2023-11-21T04:02:18;99942.84;;;8.22;78.91
50349;BME280;36250;48.740;22.174;2023-11-21T04:04:44;99925.06;;;8.26;78.76
50349;BME280;36250;48.740;22.174;2023-11-21T04:07:09;99929.66;;;8.25;79.32
50349;BME280;36250;48.740;22.174;2023-11-21T04:09:35;99927.53;;;8.27;79.05
50349;BME280;36250;48.740;22.174;2023-11-21T04:12:01;99928.94;;;8.30;79.10
50349;BME280;36250;48.740;22.174;2023-11-21T04:14:27;99933.41;;;8.24;79.39
50349;BME280;36250;48.740;22.174;2023-11-21T04:16:52;99940.41;;;8.20;79.45
50349;BME280;36250;48.740;22.174;2023-11-21T04:19:18;99939.81;;;8.18;79.81
50349;BME280;36250;48.740;22.174;2023-11-21T04:21:44;99941.59;;;8.13;79.75
50349;BME280;36250;48.740;22.174;2023-11-21T04:24:10;99938.16;;;8.17;80.10
50349;BME280;36250;48.740;22.174;2023-11-21T04:26:35;99946.53;;;8.16;79.87
50349;BME280;36250;48.740;22.174;2023-11-21T04:29:01;99943.88;;;8.04;80.35
50349;BME280;36250;48.740;22.174;2023-11-21T04:31:26;99936.22;;;8.01;80.65
50349;BME280;36250;48.740;22.174;2023-11-21T04:33:51;99929.28;;;7.93;81.12
50349;BME280;36250;48.740;22.174;2023-11-21T04:36:17;99923.72;;;8.00;81.50
50349;BME280;36250;48.740;22.174;2023-11-21T04:38:42;99917.31;;;8.18;80.72
50349;BME280;36250;48.740;22.174;2023-11-21T04:41:08;99913.78;;;8.29;80.36
50349;BME280;36250;48.740;22.174;2023-11-21T04:43:33;99907.72;;;8.38;80.40
50349;BME280;36250;48.740;22.174;2023-11-21T04:45:58;99909.22;;;8.46;79.91
50349;BME280;36250;48.740;22.174;2023-11-21T04:48:24;99904.09;;;8.49;79.50
50349;BME280;36250;48.740;22.174;2023-11-21T04:50:50;99915.78;;;8.50;79.73
50349;BME280;36250;48.740;22.174;2023-11-21T04:53:16;99921.22;;;8.50;79.51
50349;BME280;36250;48.740;22.174;2023-11-21T04:55:41;99917.16;;;8.36;79.36
50349;BME280;36250;48.740;22.174;2023-11-21T04:58:07;99924.78;;;8.39;79.97
50349;BME280;36250;48.740;22.174;2023-11-21T05:00:33;99917.66;;;8.49;79.92
50349;BME280;36250;48.740;22.174;2023-11-21T05:02:58;99917.28;;;8.57;79.91
50349;BME280;36250;48.740;22.174;2023-11-21T05:05:26;99914.66;;;8.63;79.15
50349;BME280;36250;48.740;22.174;2023-11-21T05:07:51;99918.50;;;8.67;79.61
50349;BME280;36250;48.740;22.174;2023-11-21T05:10:18;99917.78;;;8.71;79.25
50349;BME280;36250;48.740;22.174;2023-11-21T05:12:44;99911.03;;;8.74;78.72
50349;BME280;36250;48.740;22.174;2023-11-21T05:15:13;99922.47;;;8.76;79.33
50349;BME280;36250;48.740;22.174;2023-11-21T05:17:39;99921.41;;;8.77;78.84
50349;BME280;36250;48.740;22.174;2023-11-21T05:20:10;99924.22;;;8.82;79.25
50349;BME280;36250;48.740;22.174;2023-11-21T05:22:36;99911.22;;;8.84;78.81
50349;BME280;36250;48.740;22.174;2023-11-21T05:25:02;99924.53;;;8.85;78.67
50349;BME280;36250;48.740;22.174;2023-11-21T05:27:29;99930.31;;;8.89;78.52
50349;BME280;36250;48.740;22.174;2023-11-21T05:29:56;99933.59;;;8.91;78.55
50349;BME280;36250;48.740;22.174;2023-11-21T05:32:21;99942.81;;;8.90;79.16
50349;BME280;36250;48.740;22.174;2023-11-21T05:34:47;99939.00;;;8.91;78.51
50349;BME280;36250;48.740;22.174;2023-11-21T05:37:13;99950.97;;;8.90;78.61
50349;BME280;36250;48.740;22.174;2023-11-21T05:39:38;99955.31;;;8.91;78.61
50349;BME280;36250;48.740;22.174;2023-11-21T05:42:04;99954.16;;;8.87;78.64
50349;BME280;36250;48.740;22.174;2023-11-21T05:44:29;99961.72;;;8.85;79.09
50349;BME280;36250;48.740;22.174;2023-11-21T05:46:55;99957.34;;;8.84;78.52
50349;BME280;36250;48.740;22.174;2023-11-21T05:49:20;99959.75;;;8.80;78.87
50349;BME280;36250;48.740;22.174;2023-11-21T05:51:48;99972.97;;;8.77;78.73
50349;BME280;36250;48.740;22.174;2023-11-21T05:54:13;99981.09;;;8.77;78.99
50349;BME280;36250;48.740;22.174;2023-11-21T05:56:39;99981.69;;;8.79;78.66
50349;BME280;36250;48.740;22.174;2023-11-21T05:59:04;99985.22;;;8.79;79.08
50349;BME280;36250;48.740;22.174;2023-11-21T06:01:29;99986.16;;;8.85;78.78
50349;BME280;36250;48.740;22.174;2023-11-21T06:03:55;99985.38;;;8.73;78.78
50349;BME280;36250;48.740;22.174;2023-11-21T06:06:21;99979.13;;;8.72;79.07
50349;BME280;36250;48.740;22.174;2023-11-21T06:08:48;99987.38;;;8.77;78.80
50349;BME280;36250;48.740;22.174;2023-11-21T06:11:14;99979.81;;;8.79;79.04
50349;BME280;36250;48.740;22.174;2023-11-21T06:13:39;99984.97;;;8.81;78.82
50349;BME280;36250;48.740;22.174;2023-11-21T06:16:05;99979.88;;;8.68;79.08
50349;BME280;36250;48.740;22.174;2023-11-21T06:18:30;99991.69;;;8.62;79.54
50349;BME280;36250;48.740;22.174;2023-11-21T06:20:56;99992.13;;;8.70;79.32
50349;BME280;36250;48.740;22.174;2023-11-21T06:23:21;100003.28;;;8.74;78.90
50349;BME280;36250;48.740;22.174;2023-11-21T06:25:46;100007.38;;;8.59;79.21
50349;BME280;36250;48.740;22.174;2023-11-21T06:28:11;100008.00;;;8.50;80.10
50349;BME280;36250;48.740;22.174;2023-11-21T06:30:37;100008.47;;;8.47;80.21
50349;BME280;36250;48.740;22.174;2023-11-21T06:33:03;100012.44;;;8.56;80.31
50349;BME280;36250;48.740;22.174;2023-11-21T06:35:28;100013.47;;;8.67;79.83
50349;BME280;36250;48.740;22.174;2023-11-21T06:37:55;100014.81;;;8.81;79.46
50349;BME280;36250;48.740;22.174;2023-11-21T06:40:20;100019.03;;;8.88;79.53
50349;BME280;36250;48.740;22.174;2023-11-21T06:42:46;100027.84;;;8.95;79.24
50349;BME280;36250;48.740;22.174;2023-11-21T06:45:12;100034.19;;;9.01;79.15
50349;BME280;36250;48.740;22.174;2023-11-21T06:47:38;100031.31;;;9.07;79.21
50349;BME280;36250;48.740;22.174;2023-11-21T06:50:05;100031.69;;;9.11;78.89
50349;BME280;36250;48.740;22.174;2023-11-21T06:52:31;100041.22;;;9.13;78.61
50349;BME280;36250;48.740;22.174;2023-11-21T06:54:57;100039.66;;;9.17;79.00
50349;BME280;36250;48.740;22.174;2023-11-21T06:57:23;100042.22;;;9.24;79.00
50349;BME280;36250;48.740;22.174;2023-11-21T06:59:48;100046.09;;;9.28;78.37
50349;BME280;36250;48.740;22.174;2023-11-21T07:02:15;100040.75;;;9.33;78.17
50349;BME280;36250;48.740;22.174;2023-11-21T07:04:44;100034.50;;;9.33;78.22
50349;BME280;36250;48.740;22.174;2023-11-21T07:07:10;100044.03;;;9.35;78.45
50349;BME280;36250;48.740;22.174;2023-11-21T07:09:35;100052.75;;;9.37;78.33
50349;BME280;36250;48.740;22.174;2023-11-21T07:12:01;100047.00;;;9.34;78.08
50349;BME280;36250;48.740;22.174;2023-11-21T07:14:28;100060.81;;;9.32;77.81
50349;BME280;36250;48.740;22.174;2023-11-21T07:16:54;100059.41;;;9.30;77.61
50349;BME280;36250;48.740;22.174;2023-11-21T07:19:20;100060.25;;;9.30;78.20
50349;BME280;36250;48.740;22.174;2023-11-21T07:21:46;100063.31;;;9.34;77.71
50349;BME280;36250;48.740;22.174;2023-11-21T07:24:15;100066.03;;;9.34;78.05
50349;BME280;36250;48.740;22.174;2023-11-21T07:26:41;100076.97;;;9.39;77.48
50349;BME280;36250;48.740;22.174;2023-11-21T07:29:06;100075.81;;;9.35;77.59
50349;BME280;36250;48.740;22.174;2023-11-21T07:31:31;100067.09;;;9.33;77.74
50349;BME280;36250;48.740;22.174;2023-11-21T07:33:59;100067.16;;;9.38;77.61
50349;BME280;36250;48.740;22.174;2023-11-21T07:36:24;100052.63;;;9.44;78.16
50349;BME280;36250;48.740;22.174;2023-11-21T07:38:50;100058.94;;;9.49;78.22
50349;BME280;36250;48.740;22.174;2023-11-21T07:41:16;100060.13;;;9.53;77.71
50349;BME280;36250;48.740;22.174;2023-11-21T07:43:43;100059.59;;;9.56;77.76
50349;BME280;36250;48.740;22.174;2023-11-21T07:46:08;100061.91;;;9.31;77.36
50349;BME280;36250;48.740;22.174;2023-11-21T07:48:34;100060.25;;;9.30;78.41
50349;BME280;36250;48.740;22.174;2023-11-21T07:51:02;100063.63;;;9.37;78.31
50349;BME280;36250;48.740;22.174;2023-11-21T07:53:28;100050.63;;;9.39;78.56
50349;BME280;36250;48.740;22.174;2023-11-21T07:55:56;100044.47;;;9.44;78.42
50349;BME280;36250;48.740;22.174;2023-11-21T07:58:21;100046.44;;;9.48;78.35
50349;BME280;36250;48.740;22.174;2023-11-21T08:00:47;100045.69;;;9.36;78.20
50349;BME280;36250;48.740;22.174;2023-11-21T08:03:13;100049.13;;;9.15;78.39
50349;BME280;36250;48.740;22.174;2023-11-21T08:05:39;100046.41;;;9.15;79.13
50349;BME280;36250;48.740;22.174;2023-11-21T08:08:04;100055.56;;;9.25;78.90
50349;BME280;36250;48.740;22.174;2023-11-21T08:10:30;100049.97;;;9.32;78.22
50349;BME280;36250;48.740;22.174;2023-11-21T08:12:55;100047.75;;;9.29;78.31
50349;BME280;36250;48.740;22.174;2023-11-21T08:15:21;100050.78;;;9.33;78.84
50349;BME280;36250;48.740;22.174;2023-11-21T08:17:47;100052.28;;;9.40;78.63
50349;BME280;36250;48.740;22.174;2023-11-21T08:20:13;100042.25;;;9.41;78.36
50349;BME280;36250;48.740;22.174;2023-11-21T08:22:41;100041.75;;;9.44;78.09
50349;BME280;36250;48.740;22.174;2023-11-21T08:25:07;100045.69;;;9.36;77.84
50349;BME280;36250;48.740;22.174;2023-11-21T08:27:33;100052.66;;;9.32;77.89
50349;BME280;36250;48.740;22.174;2023-11-21T08:30:00;100051.13;;;9.36;78.51
50349;BME280;36250;48.740;22.174;2023-11-21T08:32:25;100051.03;;;9.48;78.61
50349;BME280;36250;48.740;22.174;2023-11-21T08:34:50;100053.59;;;9.54;78.11
50349;BME280;36250;48.740;22.174;2023-11-21T08:37:16;100053.94;;;9.41;77.88
50349;BME280;36250;48.740;22.174;2023-11-21T08:39:44;100059.50;;;9.51;78.43
50349;BME280;36250;48.740;22.174;2023-11-21T08:42:09;100051.78;;;9.60;77.91
50349;BME280;36250;48.740;22.174;2023-11-21T08:44:34;100062.25;;;9.68;77.99
50349;BME280;36250;48.740;22.174;2023-11-21T08:47:00;100057.47;;;9.75;77.58
50349;BME280;36250;48.740;22.174;2023-11-21T08:49:25;100047.50;;;9.80;77.62
50349;BME280;36250;48.740;22.174;2023-11-21T08:51:53;100057.38;;;9.86;77.72
50349;BME280;36250;48.740;22.174;2023-11-21T08:54:20;100048.47;;;9.91;77.76
50349;BME280;36250;48.740;22.174;2023-11-21T08:56:46;100051.03;;;9.98;77.32
50349;BME280;36250;48.740;22.174;2023-11-21T08:59:12;100061.94;;;10.03;77.29
50349;BME280;36250;48.740;22.174;2023-11-21T09:01:40;100055.78;;;10.07;77.04
50349;BME280;36250;48.740;22.174;2023-11-21T09:04:06;100063.69;;;10.09;77.03
50349;BME280;36250;48.740;22.174;2023-11-21T09:06:31;100062.13;;;10.13;77.15
50349;BME280;36250;48.740;22.174;2023-11-21T09:08:57;100060.63;;;10.22;77.46
50349;BME280;36250;48.740;22.174;2023-11-21T09:11:22;100056.97;;;10.33;77.03
50349;BME280;36250;48.740;22.174;2023-11-21T09:13:49;100052.44;;;10.38;76.90
50349;BME280;36250;48.740;22.174;2023-11-21T09:16:16;100048.19;;;10.47;77.10
50349;BME280;36250;48.740;22.174;2023-11-21T09:18:41;100048.94;;;10.65;76.83
50349;BME280;36250;48.740;22.174;2023-11-21T09:21:06;100047.09;;;10.70;76.33
50349;BME280;36250;48.740;22.174;2023-11-21T09:23:32;100048.72;;;10.71;76.20
50349;BME280;36250;48.740;22.174;2023-11-21T09:25:57;100044.81;;;10.62;76.11
50349;BME280;36250;48.740;22.174;2023-11-21T09:28:25;100049.44;;;10.62;75.87
50349;BME280;36250;48.740;22.174;2023-11-21T09:30:52;100043.69;;;10.58;76.32
50349;BME280;36250;48.740;22.174;2023-11-21T09:33:18;100042.09;;;10.62;76.57
50349;BME280;36250;48.740;22.174;2023-11-21T09:35:43;100031.78;;;10.64;76.41
50349;BME280;36250;48.740;22.174;2023-11-21T09:38:09;100033.72;;;10.69;76.18
50349;BME280;36250;48.740;22.174;2023-11-21T09:40:36;100030.44;;;10.67;75.94
50349;BME280;36250;48.740;22.174;2023-11-21T09:43:06;100030.44;;;10.67;75.99
50349;BME280;36250;48.740;22.174;2023-11-21T09:45:35;100024.81;;;10.73;76.62
50349;BME280;36250;48.740;22.174;2023-11-21T09:48:01;100027.59;;;10.78;76.02
50349;BME280;36250;48.740;22.174;2023-11-21T09:50:27;100034.63;;;10.74;76.47
50349;BME280;36250;48.740;22.174;2023-11-21T09:53:22;100030.50;;;10.72;76.29
50349;BME280;36250;48.740;22.174;2023-11-21T09:55:51;100036.72;;;10.67;76.48
50349;BME280;36250;48.740;22.174;2023-11-21T09:58:18;100034.00;;;10.67;76.73
50349;BME280;36250;48.740;22.174;2023-11-21T10:00:45;100038.38;;;10.68;76.88
50349;BME280;36250;48.740;22.174;2023-11-21T10:03:11;100043.13;;;10.56;76.75
50349;BME280;36250;48.740;22.174;2023-11-21T10:05:38;100052.09;;;10.56;76.44
50349;BME280;36250;48.740;22.174;2023-11-21T10:08:08;100055.06;;;10.55;76.20
50349;BME280;36250;48.740;22.174;2023-11-21T10:10:36;100054.31;;;10.60;76.40
50349;BME280;36250;48.740;22.174;2023-11-21T10:13:03;100048.88;;;10.60;76.35
50349;BME280;36250;48.740;22.174;2023-11-21T10:15:33;100058.94;;;10.59;75.80
50349;BME280;36250;48.740;22.174;2023-11-21T10:18:02;100055.97;;;10.61;75.99
50349;BME280;36250;48.740;22.174;2023-11-21T10:20:28;100060.31;;;10.62;75.67
50349;BME280;36250;48.740;22.174;2023-11-21T10:22:54;100052.91;;;10.57;76.00
50349;BME280;36250;48.740;22.174;2023-11-21T10:25:22;100061.03;;;10.52;75.94
50349;BME280;36250;48.740;22.174;2023-11-21T10:27:48;100057.66;;;10.45;75.92
50349;BME280;36250;48.740;22.174;2023-11-21T10:30:17;100060.53;;;10.33;76.51
50349;BME280;36250;48.740;22.174;2023-11-21T10:32:43;100058.63;;;10.34;76.62
50349;BME280;36250;48.740;22.174;2023-11-21T10:35:09;100059.31;;;10.24;76.31
50349;BME280;36250;48.740;22.174;2023-11-21T10:37:40;100056.81;;;10.23;76.85
50349;BME280;36250;48.740;22.174;2023-11-21T10:40:10;100058.72;;;10.22;76.83
50349;BME280;36250;48.740;22.174;2023-11-21T10:42:41;100049.91;;;10.15;77.27
50349;BME280;36250;48.740;22.174;2023-11-21T10:45:09;100049.13;;;10.15;77.74
50349;BME280;36250;48.740;22.174;2023-11-21T10:47:39;100039.88;;;10.16;77.72
50349;BME280;36250;48.740;22.174;2023-11-21T10:50:05;100048.94;;;10.21;77.63
50349;BME280;36250;48.740;22.174;2023-11-21T10:52:30;100036.78;;;10.29;78.02
50349;BME280;36250;48.740;22.174;2023-11-21T10:54:56;100035.91;;;10.45;77.63
50349;BME280;36250;48.740;22.174;2023-11-21T10:57:24;100030.03;;;10.53;77.24
50349;BME280;36250;48.740;22.174;2023-11-21T10:59:53;100037.22;;;10.64;77.24
50349;BME280;36250;48.740;22.174;2023-11-21T11:02:26;100032.66;;;10.70;76.77
50349;BME280;36250;48.740;22.174;2023-11-21T11:04:54;100036.72;;;10.67;76.39
50349;BME280;36250;48.740;22.174;2023-11-21T11:07:21;100038.75;;;10.55;76.52
50349;BME280;36250;48.740;22.174;2023-11-21T11:09:52;100037.91;;;10.54;76.80
50349;BME280;36250;48.740;22.174;2023-11-21T11:12:17;100027.31;;;10.53;77.05
50349;BME280;36250;48.740;22.174;2023-11-21T11:14:44;100024.16;;;10.66;77.34
50349;BME280;36250;48.740;22.174;2023-11-21T11:17:10;100024.56;;;10.75;77.22
50349;BME280;36250;48.740;22.174;2023-11-21T11:19:36;100021.06;;;10.79;76.76
50349;BME280;36250;48.740;22.174;2023-11-21T11:27:40;100018.75;;;11.19;76.04
50349;BME280;36250;48.740;22.174;2023-11-21T11:36:22;100025.41;;;11.34;75.77
50349;BME280;36250;48.740;22.174;2023-11-21T11:38:50;100036.56;;;11.32;75.42
50349;BME280;36250;48.740;22.174;2023-11-21T11:41:26;100031.78;;;11.17;75.21
50349;BME280;36250;48.740;22.174;2023-11-21T11:43:53;100034.91;;;10.99;75.47
50349;BME280;36250;48.740;22.174;2023-11-21T11:46:18;100036.44;;;10.90;76.26
50349;BME280;36250;48.740;22.174;2023-11-21T11:48:48;100026.88;;;10.88;76.13
50349;BME280;36250;48.740;22.174;2023-11-21T11:51:15;100036.38;;;10.85;76.25
50349;BME280;36250;48.740;22.174;2023-11-21T11:53:44;100035.75;;;10.78;76.62
50349;BME280;36250;48.740;22.174;2023-11-21T11:56:23;100038.94;;;10.70;76.34
50349;BME280;36250;48.740;22.174;2023-11-21T11:59:03;100032.75;;;10.53;76.45
50349;BME280;36250;48.740;22.174;2023-11-21T12:01:29;100035.41;;;10.48;77.52
50349;BME280;36250;48.740;22.174;2023-11-21T12:06:45;100037.09;;;10.54;77.16
50349;BME280;36250;48.740;22.174;2023-11-21T12:09:22;100028.38;;;10.52;77.27
50349;BME280;36250;48.740;22.174;2023-11-21T12:11:49;100035.91;;;10.45;77.03
50349;BME280;36250;48.740;22.174;2023-11-21T12:14:15;100029.75;;;10.33;77.58
50349;BME280;36250;48.740;22.174;2023-11-21T12:16:42;100028.13;;;10.32;77.64
50349;BME280;36250;48.740;22.174;2023-11-21T12:19:09;100029.81;;;10.38;77.38
50349;BME280;36250;48.740;22.174;2023-11-21T12:21:36;100035.19;;;10.33;77.45
50349;BME280;36250;48.740;22.174;2023-11-21T12:24:01;100034.25;;;10.22;77.77
50349;BME280;36250;48.740;22.174;2023-11-21T12:26:26;100037.97;;;10.16;77.70
50349;BME280;36250;48.740;22.174;2023-11-21T12:28:53;100035.00;;;10.18;78.30
50349;BME280;36250;48.740;22.174;2023-11-21T12:31:24;100029.47;;;10.29;78.13
50349;BME280;36250;48.740;22.174;2023-11-21T12:33:50;100025.44;;;10.37;78.08
50349;BME280;36250;48.740;22.174;2023-11-21T12:36:16;100030.97;;;10.42;78.05
50349;BME280;36250;48.740;22.174;2023-11-21T12:38:42;100028.38;;;10.52;77.44
50349;BME280;36250;48.740;22.174;2023-11-21T12:41:08;100022.16;;;10.56;77.51
50349;BME280;36250;48.740;22.174;2023-11-21T12:43:34;100018.72;;;10.66;77.64
50349;BME280;36250;48.740;22.174;2023-11-21T12:46:13;100029.16;;;10.74;76.77
50349;BME280;36250;48.740;22.174;2023-11-21T12:48:43;100035.44;;;10.75;76.46
50349;BME280;36250;48.740;22.174;2023-11-21T12:51:09;100032.22;;;10.78;76.55
50349;BME280;36250;48.740;22.174;2023-11-21T12:53:35;100033.84;;;10.79;76.05
50349;BME280;36250;48.740;22.174;2023-11-21T12:56:10;100029.84;;;10.86;76.11
50349;BME280;36250;48.740;22.174;2023-11-21T12:58:37;100042.13;;;10.89;76.36
50349;BME280;36250;48.740;22.174;2023-11-21T13:01:05;100038.78;;;10.82;75.99
50349;BME280;36250;48.740;22.174;2023-11-21T13:03:31;100039.28;;;10.79;75.87